Time;durP1;ratioP1;P1;durP2;ratioP2;P2;SDS_P1;SDS_P2;PMS_P1;PMS_P2;Temp;Humidity;BMP_temperature;BMP_pressure;BME280_temperature;BME280_humidity;BME280_pressure;Samples;Min_cycle;Max_cycle;Signal;HPM_P1;HPM_P2
2021/05/29 00:04:56;;;;;;;;;;;10.90;99.90;;;;;;10576718;28;19928;-67
2021/05/29 00:09:57;;;;;;;;;;;10.80;99.90;;;;;;10576366;28;19930;-68
2021/05/29 00:14:58;;;;;;;;;;;10.70;99.90;;;;;;10577030;28;20264;-68
2021/05/29 00:20:03;;;;;;;;;;;10.60;99.90;;;;;;10576848;28;20525;-67
2021/05/29 00:25:05;;;;;;;;;;;10.60;99.90;;;;;;10576543;28;19943;-68
2021/05/29 00:30:07;;;;;;;;;;;10.60;99.90;;;;;;10576866;28;20340;-67
2021/05/29 00:35:09;;;;;;;;;;;10.60;99.90;;;;;;10575468;28;19992;-67
2021/05/29 00:40:12;;;;;;;;;;;10.50;99.90;;;;;;10575612;28;19928;-67
2021/05/29 00:45:13;;;;;;;;;;;10.50;99.90;;;;;;10575003;28;19924;-67
2021/05/29 00:50:16;;;;;;;;;;;10.50;99.90;;;;;;10574699;28;19979;-67
2021/05/29 00:55:17;;;;;;;;;;;10.40;99.90;;;;;;10575676;28;20003;-67
2021/05/29 01:00:20;;;;;;;;;;;10.40;99.90;;;;;;10575383;28;19994;-67
2021/05/29 01:05:22;;;;;;;;;;;10.40;99.90;;;;;;10575207;28;20442;-68
2021/05/29 01:10:24;;;;;;;;;;;10.40;99.90;;;;;;10574340;28;19924;-68
2021/05/29 01:15:29;;;;;;;;;;;10.30;99.90;;;;;;10574215;28;20625;-68
2021/05/29 01:20:31;;;;;;;;;;;10.40;99.90;;;;;;10578035;28;19935;-68
2021/05/29 01:25:36;;;;;;;;;;;10.40;99.90;;;;;;10582536;28;19938;-68
2021/05/29 01:30:40;;;;;;;;;;;10.40;99.90;;;;;;10581140;28;20409;-68
2021/05/29 01:35:42;;;;;;;;;;;10.30;99.90;;;;;;10582159;28;19928;-68
2021/05/29 01:40:44;;;;;;;;;;;10.10;99.90;;;;;;10582422;28;19931;-67
2021/05/29 01:45:46;;;;;;;;;;;10.20;99.90;;;;;;10581362;28;19992;-67
2021/05/29 01:50:47;;;;;;;;;;;10.10;99.90;;;;;;10581425;28;19967;-67
2021/05/29 01:55:49;;;;;;;;;;;10.10;99.90;;;;;;10580827;28;20352;-67
2021/05/29 02:00:50;;;;;;;;;;;10.10;99.90;;;;;;10582472;28;19927;-67
2021/05/29 02:05:52;;;;;;;;;;;10.10;99.90;;;;;;10582772;28;19927;-68
2021/05/29 02:10:54;;;;;;;;;;;10.00;99.90;;;;;;10582087;28;19979;-68
2021/05/29 02:15:55;;;;;;;;;;;10.00;99.90;;;;;;10581762;28;20287;-67
2021/05/29 02:20:58;;;;;;;;;;;9.90;99.90;;;;;;10582168;28;19924;-67
2021/05/29 02:26:03;;;;;;;;;;;9.90;99.90;;;;;;10582040;28;19928;-67
2021/05/29 02:31:04;;;;;;;;;;;9.80;99.90;;;;;;10580942;28;20014;-67
2021/05/29 02:36:07;;;;;;;;;;;9.70;99.90;;;;;;10580956;28;20362;-67
2021/05/29 02:41:10;;;;;;;;;;;9.70;99.90;;;;;;10581390;28;19930;-67
2021/05/29 02:46:11;;;;;;;;;;;9.70;99.90;;;;;;10580921;28;19959;-67
2021/05/29 02:51:12;;;;;;;;;;;9.60;99.90;;;;;;10579525;28;20014;-66
2021/05/29 02:56:14;;;;;;;;;;;9.50;99.90;;;;;;10579223;28;19925;-68
2021/05/29 03:01:15;;;;;;;;;;;9.40;99.90;;;;;;10580863;28;20397;-67
2021/05/29 03:06:16;;;;;;;;;;;9.40;99.90;;;;;;10581432;28;19974;-68
2021/05/29 03:11:19;;;;;;;;;;;9.30;99.90;;;;;;10581171;28;19924;-67
2021/05/29 03:16:20;;;;;;;;;;;9.30;99.90;;;;;;10580739;28;20011;-68
2021/05/29 03:21:21;;;;;;;;;;;9.30;99.90;;;;;;10579920;28;20009;-67
2021/05/29 03:26:23;;;;;;;;;;;9.20;99.90;;;;;;10580416;28;19924;-67
2021/05/29 03:31:25;;;;;;;;;;;9.20;99.90;;;;;;10580307;28;19928;-67
2021/05/29 03:36:26;;;;;;;;;;;9.20;99.90;;;;;;10579572;28;19927;-67
2021/05/29 03:41:28;;;;;;;;;;;9.30;99.90;;;;;;10580081;28;20021;-67
2021/05/29 03:46:29;;;;;;;;;;;9.30;99.90;;;;;;10579015;28;19924;-67
2021/05/29 03:51:30;;;;;;;;;;;9.30;99.90;;;;;;10579573;28;20584;-67
2021/05/29 03:56:32;;;;;;;;;;;9.30;99.90;;;;;;10579401;28;20007;-67
2021/05/29 04:01:35;;;;;;;;;;;9.30;99.90;;;;;;10579241;28;19924;-66
2021/05/29 04:06:37;;;;;;;;;;;9.40;99.90;;;;;;10579332;28;19928;-67
2021/05/29 04:11:39;;;;;;;;;;;9.40;99.90;;;;;;10579008;28;20010;-67
2021/05/29 04:16:40;;;;;;;;;;;9.70;99.90;;;;;;10579018;28;19930;-67
2021/05/29 04:21:41;;;;;;;;;;;10.30;99.90;;;;;;10578971;28;19934;-67
2021/05/29 04:26:43;;;;;;;;;;;11.40;99.90;;;;;;10578116;28;20018;-66
2021/05/29 04:31:44;;;;;;;;;;;13.20;99.90;;;;;;10578093;28;20337;-67
2021/05/29 04:36:45;;;;;;;;;;;15.30;99.90;;;;;;10578772;28;20015;-69
2021/05/29 04:41:47;;;;;;;;;;;14.30;94.60;;;;;;10578372;28;20397;-67
2021/05/29 04:46:51;;;;;;;;;;;18.00;90.20;;;;;;10577728;28;20006;-67
2021/05/29 04:51:52;;;;;;;;;;;19.40;82.10;;;;;;10578143;28;19928;-67
2021/05/29 04:56:54;;;;;;;;;;;20.10;75.30;;;;;;10583432;28;20014;-68
2021/05/29 05:01:56;;;;;;;;;;;21.00;69.30;;;;;;10585456;28;20006;-68
2021/05/29 05:06:57;;;;;;;;;;;22.00;64.30;;;;;;10585123;28;19938;-68
2021/05/29 05:11:59;;;;;;;;;;;23.10;59.10;;;;;;10584951;28;19930;-68
2021/05/29 05:17:00;;;;;;;;;;;23.90;55.90;;;;;;10584572;28;19935;-68
2021/05/29 05:22:01;;;;;;;;;;;24.40;53.10;;;;;;10584714;28;19935;-68
2021/05/29 05:27:04;;;;;;;;;;;25.20;51.10;;;;;;10584297;28;19924;-67
2021/05/29 05:32:05;;;;;;;;;;;26.30;48.70;;;;;;10583808;28;20014;-67
2021/05/29 05:37:07;;;;;;;;;;;26.70;46.10;;;;;;10583942;28;20006;-68
2021/05/29 05:42:09;;;;;;;;;;;27.20;44.90;;;;;;10583695;28;19924;-67
2021/05/29 05:47:11;;;;;;;;;;;27.70;42.70;;;;;;10581975;28;20018;-68
2021/05/29 05:52:12;;;;;;;;;;;28.00;42.10;;;;;;10582744;28;19928;-68
2021/05/29 05:57:15;;;;;;;;;;;28.60;40.80;;;;;;10582157;28;19959;-68
2021/05/29 06:02:16;;;;;;;;;;;28.90;39.60;;;;;;10581130;28;19928;-69
2021/05/29 06:07:17;;;;;;;;;;;28.90;38.80;;;;;;10579538;28;20413;-69
2021/05/29 06:12:19;;;;;;;;;;;29.40;37.80;;;;;;10580432;28;19928;-67
2021/05/29 06:22:40;;;;;;;;;;;29.50;36.30;;;;;;10579695;28;19920;-67
2021/05/29 06:27:42;;;;;;;;;;;30.40;35.90;;;;;;10580161;28;19928;-68
2021/05/29 06:32:43;;;;;;;;;;;30.50;34.10;;;;;;10581115;28;20364;-68
2021/05/29 06:37:44;;;;;;;;;;;29.80;34.10;;;;;;10581978;28;19924;-67
2021/05/29 06:42:46;;;;;;;;;;;30.60;33.60;;;;;;10582465;28;20380;-68
2021/05/29 06:47:48;;;;;;;;;;;30.80;32.80;;;;;;10580642;28;19999;-68
2021/05/29 06:52:52;;;;;;;;;;;31.70;32.30;;;;;;10579771;28;20398;-69
2021/05/29 07:03:13;;;;;;;;;;;32.20;30.90;;;;;;10579824;28;19928;-68
2021/05/29 07:08:14;;;;;;;;;;;32.00;30.80;;;;;;10579498;28;20291;-68
2021/05/29 07:13:16;;;;;;;;;;;32.10;31.20;;;;;;10579983;28;20005;-68
2021/05/29 07:18:20;;;;;;;;;;;31.70;30.00;;;;;;10577872;28;20022;-68
2021/05/29 07:23:21;;;;;;;;;;;33.80;30.30;;;;;;10579452;28;20022;-68
2021/05/29 07:28:23;;;;;;;;;;;34.10;30.40;;;;;;10579012;28;19938;-68
2021/05/29 07:33:24;;;;;;;;;;;34.70;30.30;;;;;;10583438;28;20037;-71
2021/05/29 07:38:26;;;;;;;;;;;33.80;30.30;;;;;;10582123;28;20363;-68
2021/05/29 07:43:28;;;;;;;;;;;33.90;30.40;;;;;;10580302;28;20005;-69
2021/05/29 07:48:29;;;;;;;;;;;34.50;30.00;;;;;;10579329;28;20022;-67
2021/05/29 07:53:31;;;;;;;;;;;34.90;29.90;;;;;;10580390;28;20002;-71
2021/05/29 07:58:33;;;;;;;;;;;34.80;29.90;;;;;;10594089;28;19959;-74
2021/05/29 08:03:35;;;;;;;;;;;34.70;29.80;;;;;;10583882;28;19973;-74
2021/05/29 08:08:36;;;;;;;;;;;33.70;29.80;;;;;;10580025;28;20387;-79
2021/05/29 08:13:38;;;;;;;;;;;34.60;30.20;;;;;;10579399;28;19970;-71
2021/05/29 08:18:39;;;;;;;;;;;35.10;29.90;;;;;;10579477;28;20010;-72
2021/05/29 08:23:41;;;;;;;;;;;35.20;29.80;;;;;;10579397;28;20014;-75
2021/05/29 08:28:44;;;;;;;;;;;35.20;29.60;;;;;;10576952;28;19923;-72
2021/05/29 08:33:45;;;;;;;;;;;34.00;28.60;;;;;;10585933;28;19927;-74
2021/05/29 08:38:46;;;;;;;;;;;32.80;29.50;;;;;;10585588;28;19972;-76
2021/05/29 08:43:48;;;;;;;;;;;32.50;29.70;;;;;;10584946;28;19988;-71
2021/05/29 08:48:52;;;;;;;;;;;32.30;28.90;;;;;;10584668;28;19931;-72
2021/05/29 08:53:55;;;;;;;;;;;32.50;29.20;;;;;;10585001;28;19931;-73
2021/05/29 08:58:59;;;;;;;;;;;32.10;28.70;;;;;;10584923;28;20019;-70
2021/05/29 09:04:03;;;;;;;;;;;31.50;29.60;;;;;;10584301;28;20300;-73
2021/05/29 09:09:05;;;;;;;;;;;32.10;29.90;;;;;;10584570;28;20305;-72
2021/05/29 09:14:25;;;;;;;;;;;32.30;29.50;;;;;;10584555;28;19977;-72
2021/05/29 09:19:27;;;;;;;;;;;33.00;28.70;;;;;;10584331;28;19927;-73
2021/05/29 09:24:28;;;;;;;;;;;32.70;29.20;;;;;;10584275;28;19930;-75
2021/05/29 09:29:30;;;;;;;;;;;32.80;29.30;;;;;;10583798;28;19933;-72
2021/05/29 09:34:38;;;;;;;;;;;31.60;31.00;;;;;;10583862;28;20351;-71
2021/05/29 09:39:40;;;;;;;;;;;30.30;32.80;;;;;;10582659;28;19928;-73
2021/05/29 09:44:41;;;;;;;;;;;30.00;33.60;;;;;;10581830;28;20049;-73
2021/05/29 09:49:49;;;;;;;;;;;30.20;33.80;;;;;;10582893;28;20015;-72
2021/05/29 09:54:50;;;;;;;;;;;30.00;34.60;;;;;;10586301;28;20431;-71
2021/05/29 09:59:58;;;;;;;;;;;30.40;33.70;;;;;;10583102;28;19927;-71
2021/05/29 10:05:00;;;;;;;;;;;29.90;34.00;;;;;;10579348;28;19948;-72
2021/05/29 10:10:01;;;;;;;;;;;29.80;34.50;;;;;;10579318;28;20023;-72
2021/05/29 10:15:02;;;;;;;;;;;29.60;34.60;;;;;;10579337;28;19963;-72
2021/05/29 10:20:07;;;;;;;;;;;29.70;35.10;;;;;;10578457;28;20339;-70
2021/05/29 10:25:10;;;;;;;;;;;30.20;34.60;;;;;;10578870;28;19930;-71
2021/05/29 10:30:12;;;;;;;;;;;27.80;32.60;;;;;;10578167;28;20334;-70
2021/05/29 10:35:14;;;;;;;;;;;29.30;34.30;;;;;;10578818;28;19931;-71
2021/05/29 10:40:17;;;;;;;;;;;28.60;35.00;;;;;;10579300;28;19928;-70
2021/05/29 10:45:20;;;;;;;;;;;28.80;35.60;;;;;;10587409;28;20011;-71
2021/05/29 10:50:22;;;;;;;;;;;28.70;35.30;;;;;;10577630;28;19935;-70
2021/05/29 10:55:26;;;;;;;;;;;28.40;36.40;;;;;;10576498;28;19928;-70
2021/05/29 11:00:49;;;;;;;;;;;28.30;36.50;;;;;;10578014;28;20299;-72
2021/05/29 11:05:52;;;;;;;;;;;28.30;36.90;;;;;;10581984;28;20368;-71
2021/05/29 11:10:53;;;;;;;;;;;28.20;36.40;;;;;;10582055;28;19935;-70
2021/05/29 11:15:55;;;;;;;;;;;27.70;36.70;;;;;;10576689;28;19930;-71
2021/05/29 11:21:04;;;;;;;;;;;27.10;38.20;;;;;;10576541;28;19963;-71
2021/05/29 11:26:07;;;;;;;;;;;27.30;38.00;;;;;;10575178;28;20354;-70
2021/05/29 11:31:08;;;;;;;;;;;27.20;38.20;;;;;;10576870;28;19924;-70
2021/05/29 11:36:10;;;;;;;;;;;27.50;38.00;;;;;;10576855;28;19923;-70
2021/05/29 11:41:17;;;;;;;;;;;27.40;38.40;;;;;;10574783;28;20179;-69
2021/05/29 11:46:19;;;;;;;;;;;27.70;37.80;;;;;;10575830;28;19923;-69
2021/05/29 11:51:21;;;;;;;;;;;27.20;38.70;;;;;;10576252;28;20023;-70
2021/05/29 11:56:29;;;;;;;;;;;27.00;39.20;;;;;;10577321;28;20288;-72
2021/05/29 12:01:32;;;;;;;;;;;26.80;39.60;;;;;;10576997;28;19928;-70
2021/05/29 12:06:38;;;;;;;;;;;26.70;38.50;;;;;;10577429;28;19930;-70
2021/05/29 12:11:40;;;;;;;;;;;26.10;39.60;;;;;;10575563;28;19951;-70
2021/05/29 12:16:43;;;;;;;;;;;26.20;39.70;;;;;;10575466;28;19978;-71
2021/05/29 12:21:48;;;;;;;;;;;26.70;39.30;;;;;;10575493;28;19939;-70
2021/05/29 12:26:50;;;;;;;;;;;26.60;38.90;;;;;;10575013;28;19931;-70
2021/05/29 12:31:53;;;;;;;;;;;26.10;39.00;;;;;;10574862;28;20393;-69
2021/05/29 12:37:16;;;;;;;;;;;25.60;39.00;;;;;;10574863;28;19931;-71
2021/05/29 12:42:19;;;;;;;;;;;25.30;40.10;;;;;;10568331;28;19968;-68
2021/05/29 12:47:21;;;;;;;;;;;24.80;40.10;;;;;;10574176;28;20006;-70
2021/05/29 12:52:23;;;;;;;;;;;24.50;41.10;;;;;;10574188;28;19927;-70
2021/05/29 12:57:35;;;;;;;;;;;24.60;41.50;;;;;;10574748;28;19931;-72
2021/05/29 13:02:43;;;;;;;;;;;21.80;40.20;;;;;;10576140;28;19938;-69
2021/05/29 13:07:46;;;;;;;;;;;23.30;41.60;;;;;;10580426;28;19987;-71
2021/05/29 13:13:01;;;;;;;;;;;23.70;41.90;;;;;;10576751;28;19924;-70
2021/05/29 13:18:09;;;;;;;;;;;23.90;41.60;;;;;;10581836;28;20348;-70
2021/05/29 13:23:11;;;;;;;;;;;23.40;41.90;;;;;;10583957;28;20032;-70
2021/05/29 13:28:16;;;;;;;;;;;23.30;42.80;;;;;;10583834;28;19924;-70
2021/05/29 13:33:17;;;;;;;;;;;23.40;42.70;;;;;;10583883;28;19930;-71
2021/05/29 13:38:19;;;;;;;;;;;23.20;43.50;;;;;;10582759;28;19996;-70
2021/05/29 13:43:20;;;;;;;;;;;21.00;41.80;;;;;;10582916;28;20249;-70
2021/05/29 13:48:22;;;;;;;;;;;23.00;44.00;;;;;;10583916;28;20423;-70
2021/05/29 13:53:23;;;;;;;;;;;22.70;43.70;;;;;;10587303;28;19924;-69
2021/05/29 13:58:25;;;;;;;;;;;22.20;45.10;;;;;;10590323;28;20390;-70
2021/05/29 14:03:27;;;;;;;;;;;20.70;45.60;;;;;;10582407;28;19957;-69
2021/05/29 14:08:28;;;;;;;;;;;22.10;46.70;;;;;;10581396;28;19923;-69
2021/05/29 14:13:30;;;;;;;;;;;22.20;46.30;;;;;;10582131;28;19950;-68
2021/05/29 14:18:32;;;;;;;;;;;22.00;47.00;;;;;;10587010;28;19967;-70
2021/05/29 14:23:33;;;;;;;;;;;20.90;46.60;;;;;;10584255;28;20341;-70
2021/05/29 14:28:35;;;;;;;;;;;21.70;48.20;;;;;;10580657;28;20778;-68
2021/05/29 14:33:38;;;;;;;;;;;21.50;49.60;;;;;;10580756;28;20294;-68
2021/05/29 14:38:39;;;;;;;;;;;21.10;50.30;;;;;;10581081;28;20364;-69
2021/05/29 14:43:41;;;;;;;;;;;18.70;49.60;;;;;;10580597;28;19923;-69
2021/05/29 14:48:45;;;;;;;;;;;20.70;51.90;;;;;;10579719;28;19930;-69
2021/05/29 14:53:47;;;;;;;;;;;20.60;52.30;;;;;;10579875;28;19939;-70
2021/05/29 14:58:49;;;;;;;;;;;20.50;52.50;;;;;;10580211;28;19924;-69
2021/05/29 15:03:52;;;;;;;;;;;20.10;53.30;;;;;;10579504;28;19963;-68
2021/05/29 15:08:56;;;;;;;;;;;19.90;54.90;;;;;;10579271;28;21464;-68
2021/05/29 15:13:58;;;;;;;;;;;19.50;54.80;;;;;;10579039;28;19979;-69
2021/05/29 15:18:59;;;;;;;;;;;19.70;55.70;;;;;;10579445;28;19931;-69
2021/05/29 15:24:03;;;;;;;;;;;19.70;56.30;;;;;;10579032;28;19932;-69
2021/05/29 15:29:05;;;;;;;;;;;19.20;56.60;;;;;;10579107;28;19931;-68
2021/05/29 15:34:09;;;;;;;;;;;19.40;57.70;;;;;;10578246;28;19931;-69
2021/05/29 15:39:10;;;;;;;;;;;19.30;59.40;;;;;;10577266;28;19958;-68
2021/05/29 15:44:12;;;;;;;;;;;19.20;59.80;;;;;;10577021;28;19977;-68
2021/05/29 15:49:13;;;;;;;;;;;18.70;60.20;;;;;;10577626;28;20006;-69
2021/05/29 15:54:15;;;;;;;;;;;16.30;59.50;;;;;;10558623;28;20548;-70
2021/05/29 15:59:17;;;;;;;;;;;18.90;62.70;;;;;;10575813;28;19959;-68
2021/05/29 16:04:18;;;;;;;;;;;18.70;63.60;;;;;;10576045;28;19958;-68
2021/05/29 16:09:19;;;;;;;;;;;18.50;64.90;;;;;;10576362;28;19969;-69
2021/05/29 16:14:21;;;;;;;;;;;18.50;66.20;;;;;;10576270;28;20356;-69
2021/05/29 16:19:22;;;;;;;;;;;18.50;66.70;;;;;;10579166;28;19980;-69
2021/05/29 16:24:23;;;;;;;;;;;18.40;67.00;;;;;;10590538;28;19928;-67
2021/05/29 16:29:25;;;;;;;;;;;18.10;69.60;;;;;;10577611;28;19924;-68
2021/05/29 16:34:27;;;;;;;;;;;18.00;71.40;;;;;;10575742;28;19977;-68
2021/05/29 16:39:28;;;;;;;;;;;17.90;73.00;;;;;;10575257;28;19980;-68
2021/05/29 16:44:31;;;;;;;;;;;17.70;74.10;;;;;;10574582;28;19978;-68
2021/05/29 16:49:32;;;;;;;;;;;17.40;77.50;;;;;;10575931;28;20394;-68
2021/05/29 16:54:36;;;;;;;;;;;17.10;79.20;;;;;;10584150;28;19928;-69
2021/05/29 16:59:38;;;;;;;;;;;16.90;82.60;;;;;;10584364;28;19927;-68
2021/05/29 17:04:39;;;;;;;;;;;16.70;85.70;;;;;;10585961;28;19958;-70
2021/05/29 17:09:40;;;;;;;;;;;16.70;88.00;;;;;;10586334;28;19924;-68
2021/05/29 17:14:43;;;;;;;;;;;16.60;88.20;;;;;;10592804;28;19928;-68
2021/05/29 17:19:45;;;;;;;;;;;16.40;90.30;;;;;;10584401;28;20395;-68
2021/05/29 17:24:46;;;;;;;;;;;16.20;91.00;;;;;;10584503;28;19989;-69
2021/05/29 17:29:49;;;;;;;;;;;16.10;91.40;;;;;;10584551;28;19928;-69
2021/05/29 17:34:50;;;;;;;;;;;16.00;92.00;;;;;;10587877;28;19947;-69
2021/05/29 17:39:51;;;;;;;;;;;15.80;92.90;;;;;;10594089;28;19928;-70
2021/05/29 17:44:53;;;;;;;;;;;16.10;93.60;;;;;;10583858;28;19928;-69
2021/05/29 17:49:55;;;;;;;;;;;15.60;93.60;;;;;;10583345;28;19930;-70
2021/05/29 17:54:57;;;;;;;;;;;15.50;94.30;;;;;;10582800;28;20368;-70
2021/05/29 18:00:11;;;;;;;;;;;15.30;94.80;;;;;;10582166;28;20386;-70
2021/05/29 18:05:13;;;;;;;;;;;15.10;95.30;;;;;;10582465;28;19923;-69
2021/05/29 18:10:16;;;;;;;;;;;12.30;95.50;;;;;;10581593;28;19924;-68
2021/05/29 18:15:18;;;;;;;;;;;14.70;97.10;;;;;;10581600;28;19934;-69
2021/05/29 18:20:19;;;;;;;;;;;14.50;97.90;;;;;;10581499;28;20441;-69
2021/05/29 18:25:20;;;;;;;;;;;14.30;99.10;;;;;;10581068;28;20362;-69
2021/05/29 18:30:22;;;;;;;;;;;14.20;99.70;;;;;;10581042;28;19927;-70
2021/05/29 18:35:24;;;;;;;;;;;14.00;99.90;;;;;;10581524;28;19927;-69
2021/05/29 18:40:25;;;;;;;;;;;15.00;99.90;;;;;;10580416;28;19971;-70
2021/05/29 18:45:27;;;;;;;;;;;13.70;99.90;;;;;;10580339;28;20007;-72
2021/05/29 18:50:28;;;;;;;;;;;13.60;99.90;;;;;;10580693;28;19923;-70
2021/05/29 18:55:32;;;;;;;;;;;13.50;99.90;;;;;;10579731;28;19924;-70
2021/05/29 19:06:05;;;;;;;;;;;13.20;99.90;;;;;;10578810;28;19931;-70
2021/05/29 19:11:07;;;;;;;;;;;13.10;99.90;;;;;;10578789;28;19928;-70
2021/05/29 19:16:09;;;;;;;;;;;13.00;99.90;;;;;;10577589;28;20375;-69
2021/05/29 19:21:10;;;;;;;;;;;12.90;99.90;;;;;;10577690;28;19924;-69
2021/05/29 19:26:34;;;;;;;;;;;12.80;99.90;;;;;;10577566;28;19935;-68
2021/05/29 19:31:43;;;;;;;;;;;12.70;99.90;;;;;;10577556;28;20356;-68
2021/05/29 19:42:04;;;;;;;;;;;12.30;99.90;;;;;;10578015;28;20283;-68
2021/05/29 20:16:11;;;;;;;;;;;11.60;99.90;;;;;;10575533;28;20392;-68
2021/05/29 20:24:50;;;;;;;;;;;11.50;99.90;;;;;;10574696;28;19924;-68
2021/05/29 20:29:51;;;;;;;;;;;11.50;99.90;;;;;;10575519;28;19927;-68
2021/05/29 20:35:00;;;;;;;;;;;11.40;99.90;;;;;;10575747;28;20373;-68
2021/05/29 20:40:01;;;;;;;;;;;11.30;99.90;;;;;;10577974;28;19973;-68
2021/05/29 20:45:04;;;;;;;;;;;10.80;99.90;;;;;;10575195;28;19947;-68
2021/05/29 20:50:06;;;;;;;;;;;11.20;99.90;;;;;;10575236;28;19927;-67
2021/05/29 20:55:08;;;;;;;;;;;11.10;99.90;;;;;;10574036;28;20015;-68
2021/05/29 21:00:10;;;;;;;;;;;11.10;99.90;;;;;;10572845;28;19927;-67
2021/05/29 21:05:12;;;;;;;;;;;11.10;99.90;;;;;;10578571;28;19927;-67
2021/05/29 21:10:14;;;;;;;;;;;11.10;99.90;;;;;;10575340;28;20430;-67
2021/05/29 21:15:16;;;;;;;;;;;11.10;99.90;;;;;;10574875;28;19930;-67
2021/05/29 21:25:38;;;;;;;;;;;11.00;99.90;;;;;;10574566;28;20295;-68
2021/05/29 21:30:39;;;;;;;;;;;8.70;99.90;;;;;;10571889;28;19928;-68
2021/05/29 21:35:41;;;;;;;;;;;11.00;99.90;;;;;;10574449;28;19924;-68
2021/05/29 21:40:42;;;;;;;;;;;11.00;99.90;;;;;;10582915;28;19959;-68
2021/05/29 21:51:04;;;;;;;;;;;10.80;99.90;;;;;;10582504;28;19927;-67
2021/05/29 21:56:05;;;;;;;;;;;9.20;99.90;;;;;;10581403;28;19924;-67
2021/05/29 22:01:18;;;;;;;;;;;10.80;99.90;;;;;;10582140;28;19934;-67
2021/05/29 22:06:21;;;;;;;;;;;10.80;99.90;;;;;;10581982;28;19928;-67
2021/05/29 22:11:39;;;;;;;;;;;10.80;99.90;;;;;;10581044;28;19928;-67
2021/05/29 22:22:15;;;;;;;;;;;10.60;99.90;;;;;;10581294;28;19933;-67
2021/05/29 22:32:36;;;;;;;;;;;10.60;99.90;;;;;;10580357;28;19927;-67
2021/05/29 22:37:38;;;;;;;;;;;10.60;99.90;;;;;;10581265;28;20010;-67
2021/05/29 22:42:40;;;;;;;;;;;10.50;99.90;;;;;;10579906;28;19927;-67
2021/05/29 22:47:41;;;;;;;;;;;10.40;99.90;;;;;;10580136;28;19927;-67
2021/05/29 22:52:43;;;;;;;;;;;10.40;99.90;;;;;;10580006;28;20042;-68
2021/05/29 22:57:44;;;;;;;;;;;10.30;99.90;;;;;;10580466;28;20006;-67
2021/05/29 23:02:45;;;;;;;;;;;10.20;99.90;;;;;;10580692;28;19955;-67
2021/05/29 23:07:47;;;;;;;;;;;7.30;99.90;;;;;;10582330;28;19935;-68
2021/05/29 23:12:48;;;;;;;;;;;10.70;99.90;;;;;;10581380;28;19986;-67
2021/05/29 23:17:50;;;;;;;;;;;10.10;99.90;;;;;;10586076;28;19966;-66
2021/05/29 23:22:53;;;;;;;;;;;10.00;99.90;;;;;;10588870;28;19934;-67
2021/05/29 23:27:54;;;;;;;;;;;9.90;99.90;;;;;;10581280;28;20456;-67
2021/05/29 23:32:56;;;;;;;;;;;9.80;99.90;;;;;;10580126;28;19927;-67
2021/05/29 23:37:58;;;;;;;;;;;9.80;99.90;;;;;;10580522;28;19978;-68
2021/05/29 23:42:59;;;;;;;;;;;9.80;99.90;;;;;;10580389;28;20416;-67
2021/05/29 23:48:00;;;;;;;;;;;9.60;99.90;;;;;;10579222;28;20390;-67
2021/05/29 23:53:02;;;;;;;;;;;9.50;99.90;;;;;;10579136;28;20295;-67
2021/05/29 23:58:06;;;;;;;;;;;9.40;99.90;;;;;;10578140;28;20003;-67
